Ryderwood, Washington
Current Conditions -  °F | °C
As of 6:35 PM on Tuesday 21 Oct 2014 (Local Time) from KKLS Reporting Station
Overcast Overcast  
Wind Chill: 59°   Ceiling: 2800
Heat Index: 59°   Visibility: 10mi
Dew Point: 48°   Wind: 10mph
Humidity: 67%   Direction: 150°SSE
Pressure: 29.92"   Gusts: 17mph
Location:  46.38°N, 123.05°W
Report Text: KKLS 220135Z AUTO 15009G15KT 10SM BKN028 BKN033 OVC070 15/09 A2992 RMK AO1
Loading
Personal Weather Stations






























Interactive Weather Map
Tropical Storm Tracking
New forecast layout! Learn more

10-Day Weather Forecast

Advertisements
Track Severe Weather on mobile